createdAt,value
2022-07-29T00:01:07.723Z,87.80
2022-07-29T00:03:47.468Z,88.02
2022-07-29T00:06:15.475Z,88.24
2022-07-29T00:08:44.733Z,88.28
2022-07-29T00:11:12.721Z,88.38
2022-07-29T00:13:41.503Z,88.51
2022-07-29T00:16:09.419Z,88.42
2022-07-29T00:18:37.428Z,88.50
2022-07-29T00:21:05.466Z,89.10
2022-07-29T00:23:36.666Z,89.11
2022-07-29T00:26:06.062Z,89.10
2022-07-29T00:28:33.972Z,89.58
2022-07-29T00:31:01.746Z,89.24
2022-07-29T00:33:30.705Z,89.42
2022-07-29T00:35:57.521Z,89.31
2022-07-29T00:38:25.387Z,89.71
2022-07-29T00:40:53.499Z,89.67
2022-07-29T00:43:22.930Z,89.64
2022-07-29T00:45:50.878Z,89.75
2022-07-29T00:48:18.802Z,89.96
2022-07-29T00:50:46.677Z,90.17
2022-07-29T00:53:14.751Z,90.34
2022-07-29T00:55:42.624Z,90.52
2022-07-29T00:58:10.950Z,90.82
2022-07-29T01:00:41.871Z,91.07
2022-07-29T01:03:09.972Z,91.13
2022-07-29T01:05:49.913Z,91.34
2022-07-29T01:08:20.821Z,91.38
2022-07-29T01:10:49.915Z,91.46
2022-07-29T01:13:18.744Z,91.56
2022-07-29T01:15:52.417Z,91.47
2022-07-29T01:18:26.092Z,91.57
2022-07-29T01:21:15.204Z,91.55
2022-07-29T01:24:01.442Z,91.50
2022-07-29T01:26:47.144Z,91.25
2022-07-29T01:29:21.346Z,91.09
2022-07-29T01:32:00.541Z,91.38
2022-07-29T01:34:41.573Z,91.81
2022-07-29T01:37:17.530Z,91.89
2022-07-29T01:39:47.946Z,92.26
2022-07-29T01:42:23.027Z,92.22
2022-07-29T01:44:57.818Z,92.35
2022-07-29T01:47:31.084Z,92.32
2022-07-29T01:50:01.773Z,92.49
2022-07-29T01:52:35.829Z,92.54
2022-07-29T01:55:09.735Z,92.53
2022-07-29T01:57:40.469Z,92.46
2022-07-29T02:00:11.395Z,92.58
2022-07-29T02:02:46.290Z,92.80
2022-07-29T02:05:17.925Z,92.92
2022-07-29T02:07:48.395Z,92.81
2022-07-29T02:10:18.735Z,93.15
2022-07-29T02:12:50.937Z,93.44
2022-07-29T02:15:20.842Z,93.51
2022-07-29T02:17:58.342Z,93.79
2022-07-29T02:20:27.755Z,93.57
2022-07-29T02:22:57.329Z,93.71
2022-07-29T02:25:36.805Z,93.97
2022-07-29T02:28:07.375Z,94.21
2022-07-29T02:30:41.197Z,94.50
2022-07-29T02:33:10.636Z,95.02
2022-07-29T02:35:40.653Z,95.43
2022-07-29T02:38:27.309Z,95.81
2022-07-29T02:40:57.574Z,96.14
2022-07-29T02:43:26.809Z,96.47
2022-07-29T02:45:58.484Z,97.17
2022-07-29T02:48:34.422Z,97.07
2022-07-29T02:51:08.950Z,97.31
2022-07-29T02:53:40.990Z,97.55
2022-07-29T02:56:12.656Z,97.93
2022-07-29T02:58:43.109Z,98.09
2022-07-29T03:01:21.356Z,98.33
2022-07-29T03:03:51.317Z,98.98
2022-07-29T03:06:37.384Z,98.94
2022-07-29T03:09:12.571Z,99.10
2022-07-29T03:11:49.334Z,99.47
2022-07-29T03:14:21.004Z,99.69
2022-07-29T03:16:51.947Z,99.41
2022-07-29T03:19:21.175Z,99.54
2022-07-29T03:21:49.175Z,99.53
2022-07-29T03:24:27.691Z,99.55
2022-07-29T03:26:59.358Z,99.65
2022-07-29T03:29:34.058Z,99.96
2022-07-29T03:32:08.371Z,100.00
2022-07-29T03:34:39.734Z,100.00
2022-07-29T03:37:08.283Z,100.00
2022-07-29T03:39:42.019Z,100.00
2022-07-29T03:42:12.397Z,100.00
2022-07-29T03:44:43.592Z,100.00
2022-07-29T03:47:15.910Z,100.00
2022-07-29T03:49:46.463Z,100.00
2022-07-29T03:52:14.590Z,100.00
2022-07-29T03:54:42.670Z,100.00
2022-07-29T03:57:13.306Z,100.00
2022-07-29T03:59:42.105Z,100.00
2022-07-29T04:02:14.653Z,100.00
2022-07-29T04:04:43.414Z,100.00
2022-07-29T04:07:14.139Z,100.00
2022-07-29T04:09:41.929Z,100.00
2022-07-29T04:12:10.297Z,100.00
2022-07-29T04:14:38.305Z,100.00
2022-07-29T04:17:06.981Z,100.00
2022-07-29T04:19:36.297Z,99.97
2022-07-29T04:22:04.086Z,99.94
2022-07-29T04:24:31.865Z,99.94
2022-07-29T04:26:59.669Z,99.95
2022-07-29T04:29:27.408Z,99.95
2022-07-29T04:31:55.237Z,100.00
2022-07-29T04:34:23.005Z,99.99
2022-07-29T04:36:57.253Z,99.84
2022-07-29T04:39:25.017Z,99.55
2022-07-29T04:41:56.473Z,99.37
2022-07-29T04:44:28.829Z,99.05
2022-07-29T04:46:57.111Z,99.05
2022-07-29T04:49:25.339Z,99.25
2022-07-29T04:51:53.172Z,98.70
2022-07-29T04:54:22.260Z,98.45
2022-07-29T04:56:50.017Z,98.39
2022-07-29T04:59:17.724Z,98.10
2022-07-29T05:01:45.483Z,97.85
2022-07-29T05:04:13.783Z,97.53
2022-07-29T05:06:41.816Z,97.31
2022-07-29T05:09:09.566Z,97.05
2022-07-29T05:11:38.670Z,96.82
2022-07-29T05:14:06.418Z,96.73
2022-07-29T05:16:34.523Z,96.18
2022-07-29T05:19:02.394Z,95.72
2022-07-29T05:21:30.273Z,95.34
2022-07-29T05:23:57.967Z,94.96
2022-07-29T05:26:25.730Z,94.99
2022-07-29T05:28:55.854Z,94.81
2022-07-29T05:31:23.618Z,94.55
2022-07-29T05:33:51.364Z,94.38
2022-07-29T05:36:19.188Z,94.29
2022-07-29T05:38:46.916Z,94.39
2022-07-29T05:41:14.655Z,94.77
2022-07-29T05:43:42.608Z,94.74
2022-07-29T05:46:11.839Z,94.85
2022-07-29T05:48:39.947Z,94.61
2022-07-29T05:51:07.946Z,94.50
2022-07-29T05:53:35.655Z,94.44
2022-07-29T05:56:05.307Z,94.24
2022-07-29T05:58:33.091Z,93.82
2022-07-29T06:01:01.927Z,93.45
2022-07-29T06:03:31.207Z,93.34
2022-07-29T06:05:58.996Z,93.12
2022-07-29T06:08:26.724Z,93.08
2022-07-29T06:10:54.530Z,92.94
2022-07-29T06:13:22.305Z,92.89
2022-07-29T06:15:50.501Z,92.87
2022-07-29T06:18:18.258Z,92.73
2022-07-29T06:20:47.360Z,92.62
2022-07-29T06:23:15.209Z,92.64
2022-07-29T06:25:43.134Z,92.67
2022-07-29T06:28:11.068Z,92.66
2022-07-29T06:30:38.916Z,93.00
2022-07-29T06:33:06.725Z,92.76
2022-07-29T06:35:41.130Z,92.01
2022-07-29T06:38:33.756Z,91.18
2022-07-29T06:41:03.725Z,90.49
2022-07-29T06:43:34.879Z,89.28
2022-07-29T06:46:04.275Z,88.08
2022-07-29T06:48:32.646Z,87.35
2022-07-29T06:51:01.167Z,85.83
2022-07-29T06:53:31.309Z,82.90
2022-07-29T06:56:00.189Z,81.02
2022-07-29T06:58:28.264Z,79.07
2022-07-29T07:01:00.082Z,76.33
2022-07-29T07:03:27.933Z,75.31
2022-07-29T07:05:56.870Z,71.31
2022-07-29T07:08:25.307Z,69.80
2022-07-29T07:10:56.127Z,67.40
2022-07-29T07:13:23.906Z,66.68
2022-07-29T07:15:52.850Z,66.46
2022-07-29T07:18:21.189Z,65.00
2022-07-29T07:20:49.769Z,62.59
2022-07-29T07:23:17.703Z,60.36
2022-07-29T07:25:46.108Z,59.46
2022-07-29T07:28:15.242Z,57.58
2022-07-29T07:30:43.055Z,56.43
2022-07-29T07:33:10.932Z,55.40
2022-07-29T07:35:38.774Z,55.09
2022-07-29T07:38:07.089Z,52.43
2022-07-29T07:40:34.989Z,51.86
2022-07-29T07:43:03.021Z,50.57
2022-07-29T07:45:33.556Z,48.71
2022-07-29T07:48:01.452Z,47.67
2022-07-29T07:50:29.288Z,47.85
2022-07-29T07:52:58.904Z,46.86
2022-07-29T07:55:27.704Z,45.57
2022-07-29T07:57:55.921Z,45.76
2022-07-29T08:04:13.202Z,45.08
2022-07-29T08:06:41.106Z,44.09
2022-07-29T08:09:28.071Z,44.36
2022-07-29T08:11:57.609Z,43.70
2022-07-29T08:14:25.555Z,41.90
2022-07-29T08:16:53.339Z,41.75
2022-07-29T08:19:22.488Z,41.10
2022-07-29T08:21:53.866Z,41.09
2022-07-29T08:24:39.680Z,40.47
2022-07-29T08:27:21.300Z,39.56
2022-07-29T08:29:56.783Z,39.79
2022-07-29T08:32:50.950Z,40.17
2022-07-29T08:35:13.655Z,39.21
2022-07-29T08:37:41.491Z,39.47
2022-07-29T08:40:10.029Z,38.38
2022-07-29T08:42:38.014Z,37.68
2022-07-29T08:45:06.979Z,37.04
2022-07-29T08:47:37.089Z,36.48
2022-07-29T08:50:05.518Z,36.03
2022-07-29T08:52:38.093Z,35.26
2022-07-29T08:55:07.481Z,35.31
2022-07-29T08:57:37.123Z,35.29
2022-07-29T09:00:11.644Z,34.45
2022-07-29T09:02:43.616Z,34.02
2022-07-29T09:05:14.713Z,34.79
2022-07-29T09:07:44.804Z,34.41
2022-07-29T09:10:12.756Z,34.64
2022-07-29T09:12:40.768Z,34.56
2022-07-29T09:15:09.728Z,34.06
2022-07-29T09:17:44.609Z,32.72
2022-07-29T09:20:14.098Z,34.96
2022-07-29T09:22:43.260Z,33.95
2022-07-29T09:25:13.614Z,34.10
2022-07-29T09:27:41.372Z,34.30
2022-07-29T09:30:12.395Z,34.30
2022-07-29T09:32:54.821Z,32.72
2022-07-29T09:35:24.789Z,34.28
2022-07-29T09:37:54.344Z,33.57
2022-07-29T09:40:24.166Z,34.18
2022-07-29T09:42:53.829Z,34.26
2022-07-29T09:45:32.871Z,32.99
2022-07-29T09:48:04.257Z,34.01
2022-07-29T09:50:39.739Z,34.25
2022-07-29T09:53:10.383Z,35.19
2022-07-29T09:55:49.391Z,35.13
2022-07-29T09:58:18.396Z,35.34
2022-07-29T10:00:46.952Z,35.50
2022-07-29T10:03:16.632Z,34.88
2022-07-29T10:05:45.568Z,34.98
2022-07-29T10:08:15.171Z,34.65
2022-07-29T10:10:44.350Z,33.84
2022-07-29T10:13:16.013Z,34.54
2022-07-29T10:15:47.314Z,35.47
2022-07-29T10:18:18.121Z,35.23
2022-07-29T10:20:46.111Z,36.77
2022-07-29T10:23:15.381Z,35.96
2022-07-29T10:25:46.397Z,36.05
2022-07-29T10:28:16.669Z,35.99
2022-07-29T10:30:46.549Z,35.88
2022-07-29T10:33:32.104Z,36.40
2022-07-29T10:36:12.386Z,36.66
2022-07-29T10:38:53.312Z,35.73
2022-07-29T10:41:44.702Z,35.21
2022-07-29T10:44:19.371Z,36.68
2022-07-29T10:46:51.945Z,36.85
2022-07-29T10:49:24.876Z,36.79
2022-07-29T10:51:58.486Z,37.13
2022-07-29T10:54:46.009Z,36.76
2022-07-29T10:57:52.594Z,36.48
2022-07-29T11:00:31.920Z,36.62
2022-07-29T11:03:00.129Z,37.29
2022-07-29T11:05:39.817Z,38.16
2022-07-29T11:08:28.104Z,38.98
2022-07-29T11:11:44.089Z,39.22
2022-07-29T11:14:26.504Z,38.93
2022-07-29T11:17:06.912Z,39.10
2022-07-29T11:19:37.307Z,39.00
2022-07-29T11:22:10.688Z,39.33
2022-07-29T11:24:39.383Z,39.71
2022-07-29T11:27:20.941Z,39.90
2022-07-29T11:29:55.672Z,39.33
2022-07-29T11:32:25.178Z,39.58
2022-07-29T11:35:17.269Z,38.80
2022-07-29T11:37:52.566Z,39.77
2022-07-29T11:40:23.774Z,40.23
2022-07-29T11:42:55.208Z,40.33
2022-07-29T11:45:43.639Z,40.36
2022-07-29T11:48:31.431Z,40.82
2022-07-29T11:51:00.370Z,40.68
2022-07-29T11:53:32.870Z,40.69
2022-07-29T11:56:02.467Z,40.92
2022-07-29T11:58:31.472Z,41.26
2022-07-29T12:01:04.881Z,41.30
2022-07-29T12:03:36.415Z,41.52
2022-07-29T12:06:13.267Z,42.08
2022-07-29T12:08:44.192Z,42.72
2022-07-29T12:11:20.490Z,43.22
2022-07-29T12:13:49.617Z,42.95
2022-07-29T12:16:25.903Z,43.12
2022-07-29T12:19:02.465Z,42.96
2022-07-29T12:21:31.216Z,43.56
2022-07-29T12:24:05.777Z,43.57
2022-07-29T12:26:40.484Z,43.51
2022-07-29T12:29:14.067Z,43.53
2022-07-29T12:31:45.303Z,44.15
2022-07-29T12:34:14.353Z,44.05
2022-07-29T12:36:43.206Z,43.94
2022-07-29T12:39:12.348Z,43.98
2022-07-29T12:41:40.835Z,44.52
2022-07-29T12:44:08.703Z,44.96
2022-07-29T12:46:36.713Z,44.56
2022-07-29T12:49:06.348Z,44.28
2022-07-29T12:51:35.596Z,43.77
2022-07-29T12:54:09.510Z,43.66
2022-07-29T12:56:45.135Z,43.34
2022-07-29T12:59:14.869Z,43.46
2022-07-29T13:01:42.800Z,43.86
2022-07-29T13:04:12.096Z,44.14
2022-07-29T13:06:41.780Z,43.72
2022-07-29T13:09:14.964Z,43.41
2022-07-29T13:11:48.428Z,43.33
2022-07-29T13:14:34.173Z,42.74
2022-07-29T13:17:04.958Z,43.66
2022-07-29T13:19:41.279Z,43.53
2022-07-29T13:22:09.592Z,43.41
2022-07-29T13:24:48.175Z,43.43
2022-07-29T13:27:16.592Z,42.97
2022-07-29T13:29:44.349Z,43.12
2022-07-29T13:32:14.322Z,43.33
2022-07-29T13:34:43.452Z,43.60
2022-07-29T13:37:11.385Z,43.98
2022-07-29T13:39:39.425Z,44.04
2022-07-29T13:42:11.002Z,44.11
2022-07-29T13:44:39.217Z,44.57
2022-07-29T13:47:07.416Z,44.84
2022-07-29T13:49:35.353Z,45.05
2022-07-29T13:52:05.697Z,44.92
2022-07-29T13:54:33.423Z,44.88
2022-07-29T13:57:01.190Z,45.02
2022-07-29T13:59:28.921Z,45.04
2022-07-29T14:01:57.347Z,44.93
2022-07-29T14:04:25.289Z,45.12
2022-07-29T14:06:53.329Z,45.56
2022-07-29T14:09:22.512Z,45.92
2022-07-29T14:19:19.902Z,45.33
2022-07-29T14:26:08.777Z,45.37
2022-07-29T14:28:42.052Z,45.13
2022-07-29T14:31:09.925Z,45.13
2022-07-29T14:33:37.706Z,45.50
2022-07-29T14:36:06.111Z,45.77
2022-07-29T14:38:33.926Z,46.04
2022-07-29T14:41:01.706Z,46.16
2022-07-29T14:43:31.047Z,46.93
2022-07-29T14:46:02.090Z,47.11
2022-07-29T14:48:33.102Z,47.48
2022-07-29T14:51:04.582Z,47.52
2022-07-29T14:53:32.818Z,47.50
2022-07-29T14:56:20.880Z,47.56
2022-07-29T14:58:51.536Z,47.93
2022-07-29T15:01:19.917Z,48.06
2022-07-29T15:03:47.815Z,48.21
2022-07-29T15:06:15.647Z,48.59
2022-07-29T15:08:43.413Z,49.10
2022-07-29T15:11:11.169Z,48.91
2022-07-29T15:13:38.915Z,48.43
2022-07-29T15:16:08.599Z,48.78
2022-07-29T15:18:39.525Z,48.73
2022-07-29T15:21:08.563Z,48.51
2022-07-29T15:33:26.552Z,46.40
2022-07-29T15:37:08.429Z,47.05
2022-07-29T15:40:50.687Z,46.98
2022-07-29T15:44:32.528Z,47.21
2022-07-29T15:47:27.542Z,47.82
2022-07-29T15:49:55.396Z,47.85
2022-07-29T16:05:18.216Z,49.93
2022-07-29T16:07:45.947Z,49.83
2022-07-29T16:10:13.699Z,50.33
2022-07-29T16:12:41.828Z,50.25
2022-07-29T16:15:10.910Z,50.92
2022-07-29T16:17:38.898Z,51.54
2022-07-29T16:20:08.176Z,51.82
2022-07-29T16:22:37.243Z,52.78
2022-07-29T16:25:05.566Z,53.13
2022-07-29T16:27:37.907Z,55.58
2022-07-29T16:30:09.566Z,54.41
2022-07-29T16:32:37.186Z,55.63
2022-07-29T16:35:05.373Z,55.33
2022-07-29T16:49:29.177Z,57.47
2022-07-29T16:51:56.951Z,57.54
2022-07-29T17:33:11.078Z,63.10
2022-07-29T17:39:40.687Z,64.47
2022-07-29T17:47:42.563Z,65.76
2022-07-29T18:21:38.004Z,71.53
2022-07-29T18:32:38.032Z,74.01
2022-07-29T18:35:11.349Z,74.24
2022-07-29T18:38:00.833Z,75.19
2022-07-29T18:44:49.124Z,76.50
2022-07-29T18:47:17.142Z,77.02
2022-07-29T18:49:46.625Z,78.06
2022-07-29T18:52:14.346Z,78.16
2022-07-29T18:54:45.911Z,79.30
2022-07-29T18:57:54.920Z,79.83
2022-07-29T19:00:04.536Z,81.01
2022-07-29T19:02:32.623Z,81.26
2022-07-29T19:05:01.951Z,81.70
2022-07-29T19:07:32.013Z,82.22
2022-07-29T19:09:59.854Z,82.47
2022-07-29T19:12:27.559Z,83.02
2022-07-29T19:14:58.092Z,83.78
2022-07-29T19:17:25.940Z,84.58
2022-07-29T19:19:55.627Z,85.71
2022-07-29T19:22:26.824Z,86.29
2022-07-29T19:24:54.565Z,87.18
2022-07-29T19:27:25.886Z,88.19
2022-07-29T19:29:56.632Z,89.08
2022-07-29T19:32:32.316Z,89.65
2022-07-29T19:35:17.402Z,90.00
2022-07-29T19:37:46.486Z,90.77
2022-07-29T19:40:16.165Z,91.50
2022-07-29T19:42:44.143Z,91.89
2022-07-29T19:45:14.746Z,92.03
2022-07-29T19:47:42.484Z,92.48
2022-07-29T19:50:13.336Z,93.18
2022-07-29T19:52:41.151Z,93.53
2022-07-29T19:55:11.271Z,93.90
2022-07-29T19:57:40.997Z,94.18
2022-07-29T20:00:11.377Z,94.62
2022-07-29T20:02:40.250Z,94.85
2022-07-29T20:05:09.263Z,95.37
2022-07-29T20:07:40.269Z,95.90
2022-07-29T20:10:11.212Z,95.82
2022-07-29T20:12:39.049Z,96.21
2022-07-29T20:15:08.462Z,96.70
2022-07-29T20:17:39.922Z,97.42
2022-07-29T20:20:11.341Z,97.69
2022-07-29T20:22:41.037Z,97.89
2022-07-29T20:25:11.827Z,98.50
2022-07-29T20:27:43.849Z,99.09
2022-07-29T20:30:14.362Z,99.61
2022-07-29T20:32:42.629Z,100.00
2022-07-29T20:35:13.544Z,100.00
2022-07-29T20:37:52.564Z,100.00
2022-07-29T20:40:26.889Z,100.00
2022-07-29T20:42:54.808Z,100.00
2022-07-29T20:45:23.579Z,100.00
2022-07-29T20:47:51.866Z,100.00
2022-07-29T20:50:20.541Z,100.00
2022-07-29T20:52:51.630Z,100.00
2022-07-29T20:55:19.512Z,100.00
2022-07-29T20:57:50.738Z,100.00
2022-07-29T21:00:18.726Z,100.00
2022-07-29T21:02:46.551Z,100.00
2022-07-29T21:05:17.021Z,100.00
2022-07-29T21:07:44.883Z,100.00
2022-07-29T21:10:14.164Z,100.00
2022-07-29T21:12:42.878Z,100.00
2022-07-29T21:15:13.484Z,100.00
2022-07-29T21:17:46.798Z,100.00
2022-07-29T21:20:15.474Z,100.00
2022-07-29T21:22:43.321Z,100.00
2022-07-29T21:25:11.721Z,100.00
2022-07-29T21:27:57.146Z,100.00
2022-07-29T21:30:26.251Z,100.00
2022-07-29T21:32:54.067Z,100.00
2022-07-29T21:35:31.365Z,100.00
2022-07-29T21:38:11.695Z,100.00
2022-07-29T21:40:39.723Z,100.00
2022-07-29T21:43:07.492Z,100.00
2022-07-29T21:45:36.576Z,100.00
2022-07-29T21:48:04.438Z,100.00
2022-07-29T21:50:32.970Z,100.00
2022-07-29T21:53:00.784Z,100.00
2022-07-29T21:55:28.715Z,100.00
2022-07-29T21:57:58.972Z,100.00
2022-07-29T22:00:26.732Z,100.00
2022-07-29T22:02:56.240Z,100.00
2022-07-29T22:05:24.327Z,100.00
2022-07-29T22:07:56.361Z,100.00
2022-07-29T22:10:25.900Z,100.00
2022-07-29T22:12:55.122Z,100.00
2022-07-29T22:15:23.286Z,100.00
2022-07-29T22:17:51.194Z,100.00
2022-07-29T22:20:20.417Z,100.00
2022-07-29T22:22:48.167Z,100.00
2022-07-29T22:25:15.999Z,100.00
2022-07-29T22:27:45.008Z,100.00
2022-07-29T22:30:13.165Z,100.00
2022-07-29T22:32:41.209Z,100.00
2022-07-29T22:35:09.438Z,100.00
2022-07-29T22:37:39.101Z,100.00
2022-07-29T22:40:08.277Z,100.00
2022-07-29T22:42:36.193Z,100.00
2022-07-29T22:45:10.285Z,100.00
2022-07-29T22:47:38.767Z,100.00
2022-07-29T22:50:14.456Z,100.00
2022-07-29T22:52:43.607Z,100.00
2022-07-29T22:55:12.137Z,100.00
2022-07-29T22:57:39.932Z,100.00
2022-07-29T23:00:09.154Z,100.00
2022-07-29T23:02:37.363Z,100.00
2022-07-29T23:05:05.420Z,100.00
2022-07-29T23:07:34.470Z,100.00
2022-07-29T23:10:04.293Z,100.00
2022-07-29T23:12:32.079Z,100.00
2022-07-29T23:14:59.943Z,100.00
2022-07-29T23:17:27.724Z,100.00
2022-07-29T23:19:55.482Z,100.00
2022-07-29T23:22:23.955Z,100.00
2022-07-29T23:24:51.663Z,100.00
2022-07-29T23:27:20.730Z,100.00
2022-07-29T23:29:48.462Z,100.00
2022-07-29T23:32:16.235Z,100.00
2022-07-29T23:34:43.982Z,100.00
2022-07-29T23:37:11.891Z,100.00
2022-07-29T23:39:39.586Z,100.00
2022-07-29T23:42:07.449Z,100.00
2022-07-29T23:44:36.580Z,100.00
2022-07-29T23:47:04.635Z,100.00
2022-07-29T23:49:32.434Z,100.00
2022-07-29T23:52:00.183Z,100.00
2022-07-29T23:54:27.993Z,100.00
2022-07-29T23:56:57.631Z,100.00
2022-07-29T23:59:26.050Z,100.00
